createdAt,value
2019-04-20T00:02:13.720Z,18.80
2019-04-20T00:04:37.550Z,19.97
2019-04-20T00:07:08.089Z,17.57
2019-04-20T00:09:40.016Z,13.93
2019-04-20T00:12:18.912Z,15.00
2019-04-20T00:14:41.287Z,13.37
2019-04-20T00:17:11.625Z,18.80
2019-04-20T00:19:47.003Z,19.00
2019-04-20T00:22:18.389Z,14.30
2019-04-20T00:25:12.608Z,18.93
2019-04-20T00:27:59.534Z,13.80
2019-04-20T00:30:32.624Z,15.47
2019-04-20T00:32:55.543Z,19.07
2019-04-20T00:35:14.745Z,17.77
2019-04-20T00:37:46.746Z,17.10
2019-04-20T00:40:17.148Z,21.50
2019-04-20T00:42:51.747Z,16.43
2019-04-20T00:45:21.981Z,16.57
2019-04-20T00:47:56.260Z,12.90
2019-04-20T00:50:34.339Z,13.50
2019-04-20T00:53:04.696Z,18.43
2019-04-20T00:55:23.213Z,21.03
2019-04-20T00:57:59.696Z,12.40
2019-04-20T01:00:42.512Z,16.03
2019-04-20T01:03:14.224Z,21.37
2019-04-20T01:05:54.082Z,14.03
2019-04-20T01:08:08.194Z,11.20
2019-04-20T01:10:44.784Z,16.90
2019-04-20T01:13:13.987Z,19.13
2019-04-20T01:15:48.842Z,10.67
2019-04-20T01:18:13.856Z,18.80
2019-04-20T01:20:43.100Z,26.03
2019-04-20T01:23:17.221Z,19.33
2019-04-20T01:25:46.908Z,21.67
2019-04-20T01:28:29.918Z,15.87
2019-04-20T01:31:00.010Z,18.37
2019-04-20T01:33:34.309Z,15.37
2019-04-20T01:36:03.543Z,12.33
2019-04-20T01:38:34.266Z,16.63
2019-04-20T01:40:50.956Z,15.83
2019-04-20T01:43:20.601Z,23.93
2019-04-20T01:45:58.435Z,20.67
2019-04-20T01:48:27.438Z,14.53
2019-04-20T01:51:02.518Z,21.23
2019-04-20T01:53:46.511Z,15.97
2019-04-20T01:56:14.326Z,20.97
2019-04-20T01:58:59.787Z,16.00
2019-04-20T02:01:21.167Z,16.47
2019-04-20T02:03:50.821Z,18.47
2019-04-20T02:06:25.078Z,18.67
2019-04-20T02:09:00.335Z,17.77
2019-04-20T02:11:29.418Z,22.00
2019-04-20T02:14:00.271Z,16.80
2019-04-20T02:16:35.698Z,17.67
2019-04-20T02:19:14.820Z,23.17
2019-04-20T02:21:46.682Z,23.73
2019-04-20T02:24:04.659Z,23.03
2019-04-20T02:26:32.341Z,21.23
2019-04-20T02:29:24.618Z,21.60
2019-04-20T02:32:12.154Z,26.03
2019-04-20T02:34:59.812Z,19.83
2019-04-20T02:37:26.355Z,25.60
2019-04-20T02:39:57.912Z,24.57
2019-04-20T02:42:34.934Z,18.50
2019-04-20T02:45:12.740Z,29.10
2019-04-20T02:47:36.211Z,20.70
2019-04-20T02:50:03.214Z,21.00
2019-04-20T02:52:48.660Z,26.03
2019-04-20T02:55:02.115Z,25.10
2019-04-20T03:00:09.168Z,24.23
2019-04-20T03:02:20.604Z,23.70
2019-04-20T03:04:42.499Z,21.90
2019-04-20T03:07:19.148Z,22.30
2019-04-20T03:09:57.725Z,21.83
2019-04-20T03:12:33.524Z,24.33
2019-04-20T03:14:52.711Z,23.10
2019-04-20T03:17:37.272Z,25.93
2019-04-20T03:19:54.593Z,26.07
2019-04-20T03:22:39.482Z,25.90
2019-04-20T03:25:07.906Z,21.27
2019-04-20T03:27:36.553Z,23.00
2019-04-20T03:31:05.603Z,20.53
2019-04-20T03:33:12.058Z,24.17
2019-04-20T03:35:32.932Z,19.67
2019-04-20T03:38:05.227Z,17.87
2019-04-20T03:40:25.456Z,20.27
2019-04-20T03:42:44.659Z,17.37
2019-04-20T03:45:19.196Z,16.47
2019-04-20T03:47:57.061Z,20.90
2019-04-20T03:50:41.277Z,18.03
2019-04-20T03:53:12.910Z,17.43
2019-04-20T03:55:40.259Z,17.20
2019-04-20T03:58:18.618Z,18.63
2019-04-20T04:00:50.501Z,15.57
2019-04-20T04:03:36.459Z,16.70
2019-04-20T04:05:50.714Z,17.20
2019-04-20T04:08:21.779Z,18.33
2019-04-20T04:11:06.598Z,18.80
2019-04-20T04:13:16.860Z,15.83
2019-04-20T04:15:52.269Z,21.33
2019-04-20T04:18:28.046Z,22.00
2019-04-20T04:20:59.545Z,14.67
2019-04-20T04:23:40.906Z,20.97
2019-04-20T04:26:10.093Z,16.67
2019-04-20T04:28:41.168Z,16.93
2019-04-20T04:31:16.282Z,13.37
2019-04-20T04:36:15.382Z,15.83
2019-04-20T04:38:57.187Z,13.00
2019-04-20T04:41:25.631Z,15.07
2019-04-20T04:43:49.749Z,16.67
2019-04-20T04:46:04.246Z,19.03
2019-04-20T04:48:38.854Z,15.57
2019-04-20T04:51:12.922Z,17.10
2019-04-20T04:53:47.846Z,15.10
2019-04-20T04:56:11.592Z,18.33
2019-04-20T04:58:38.517Z,15.40
2019-04-20T05:01:14.803Z,15.77
2019-04-20T05:04:05.274Z,19.67
2019-04-20T05:06:29.192Z,20.23
2019-04-20T05:08:49.758Z,16.87
2019-04-20T05:11:15.218Z,26.50
2019-04-20T05:13:54.167Z,16.53
2019-04-20T05:16:38.527Z,19.87
2019-04-20T05:21:39.438Z,16.43
2019-04-20T05:24:26.873Z,21.30
2019-04-20T05:27:07.117Z,16.37
2019-04-20T05:29:22.519Z,25.57
2019-04-20T05:31:51.826Z,26.50
2019-04-20T05:34:38.500Z,26.43
2019-04-20T05:37:17.992Z,24.37
2019-04-20T05:39:38.508Z,23.70
2019-04-20T05:42:12.689Z,25.70
2019-04-20T05:44:46.025Z,23.27
2019-04-20T05:47:19.574Z,24.10
2019-04-20T05:49:45.318Z,23.43
2019-04-20T05:52:29.007Z,22.87
2019-04-20T05:54:50.931Z,22.93
2019-04-20T05:57:25.163Z,18.77
2019-04-20T05:59:55.766Z,19.20
2019-04-20T06:02:23.344Z,19.83
2019-04-20T06:05:11.428Z,17.60
2019-04-20T06:07:26.771Z,18.80
2019-04-20T06:09:59.794Z,17.43
2019-04-20T06:12:28.409Z,20.90
2019-04-20T06:15:00.152Z,19.57
2019-04-20T06:17:55.358Z,20.00
2019-04-20T06:20:33.339Z,13.47
2019-04-20T06:23:12.241Z,13.83
2019-04-20T06:25:54.251Z,17.57
2019-04-20T06:28:12.769Z,15.80
2019-04-20T06:30:45.286Z,19.90
2019-04-20T06:34:08.784Z,23.23
2019-04-20T06:36:33.591Z,19.07
2019-04-20T06:41:45.568Z,26.57
2019-04-20T06:44:08.644Z,29.73
2019-04-20T06:46:36.305Z,36.03
2019-04-20T06:49:11.840Z,41.53
2019-04-20T06:51:48.229Z,38.93
2019-04-20T06:54:17.332Z,42.63
2019-04-20T06:56:59.461Z,36.00
2019-04-20T06:59:32.183Z,42.13
2019-04-20T07:02:11.384Z,37.70
2019-04-20T07:04:43.269Z,25.77
2019-04-20T07:07:12.566Z,22.53
2019-04-20T07:12:03.135Z,21.47
2019-04-20T07:14:31.414Z,21.53
2019-04-20T07:17:17.944Z,19.27
2019-04-20T07:19:45.508Z,14.03
2019-04-20T07:22:33.692Z,17.27
2019-04-20T07:24:56.403Z,15.20
2019-04-20T07:27:19.345Z,15.67
2019-04-20T07:29:52.976Z,15.40
2019-04-20T07:32:14.170Z,11.50
2019-04-20T07:35:00.169Z,12.57
2019-04-20T07:40:06.773Z,13.17
2019-04-20T07:42:52.411Z,14.90
2019-04-20T07:45:12.276Z,13.37
2019-04-20T07:47:40.512Z,14.53
2019-04-20T07:50:05.132Z,17.17
2019-04-20T07:52:31.562Z,10.50
2019-04-20T07:55:28.618Z,11.17
2019-04-20T07:57:40.548Z,11.97
2019-04-20T08:00:15.046Z,11.33
2019-04-20T08:03:12.432Z,9.60
2019-04-20T08:05:22.002Z,14.20
2019-04-20T08:07:49.518Z,14.23
2019-04-20T08:10:12.251Z,12.73
2019-04-20T08:15:46.205Z,15.43
2019-04-20T08:18:02.408Z,11.20
2019-04-20T08:20:35.555Z,10.47
2019-04-20T08:23:04.976Z,10.80
2019-04-20T08:25:32.759Z,14.73
2019-04-20T08:28:01.377Z,14.07
2019-04-20T08:30:53.801Z,15.37
2019-04-20T08:33:28.472Z,13.20
2019-04-20T08:36:09.274Z,14.17
2019-04-20T08:38:58.316Z,16.20
2019-04-20T08:41:00.140Z,17.80
2019-04-20T08:43:47.002Z,13.40
2019-04-20T08:46:09.924Z,16.90
2019-04-20T08:48:41.813Z,16.67
2019-04-20T08:51:09.013Z,15.93
2019-04-20T08:53:41.812Z,9.90
2019-04-20T08:56:03.325Z,10.87
2019-04-20T08:58:22.600Z,11.70
2019-04-20T09:00:55.371Z,20.43
2019-04-20T09:03:29.096Z,17.90
2019-04-20T09:06:06.432Z,14.67
2019-04-20T09:08:36.679Z,11.60
2019-04-20T09:11:15.410Z,12.30
2019-04-20T09:13:38.906Z,12.67
2019-04-20T09:16:02.115Z,10.67
2019-04-20T09:18:46.634Z,8.63
2019-04-20T09:21:13.649Z,10.40
2019-04-20T09:23:57.899Z,13.07
2019-04-20T09:26:32.754Z,11.10
2019-04-20T09:28:59.117Z,9.90
2019-04-20T09:31:39.207Z,10.53
2019-04-20T09:34:15.422Z,9.77
2019-04-20T09:36:46.127Z,9.73
2019-04-20T09:39:21.276Z,13.10
2019-04-20T09:42:00.884Z,15.33
2019-04-20T09:44:33.634Z,13.43
2019-04-20T09:46:59.819Z,8.90
2019-04-20T09:49:38.730Z,11.43
2019-04-20T09:52:13.431Z,9.77
2019-04-20T09:54:48.215Z,11.87
2019-04-20T09:57:22.726Z,10.00
2019-04-20T09:59:52.637Z,9.03
2019-04-20T10:02:13.183Z,10.40
2019-04-20T10:04:36.020Z,12.23
2019-04-20T10:07:12.915Z,10.20
2019-04-20T10:09:43.012Z,15.20
2019-04-20T10:12:09.233Z,12.83
2019-04-20T10:14:40.593Z,16.00
2019-04-20T10:17:11.877Z,14.77
2019-04-20T10:19:43.018Z,10.03
2019-04-20T10:22:13.221Z,15.20
2019-04-20T10:24:45.800Z,14.13
2019-04-20T10:27:14.616Z,12.80
2019-04-20T10:29:44.208Z,12.43
2019-04-20T10:32:15.807Z,15.20
2019-04-20T10:34:44.836Z,10.93
2019-04-20T10:37:19.766Z,10.63
2019-04-20T10:39:49.975Z,10.90
2019-04-20T10:42:20.377Z,18.10
2019-04-20T10:44:53.981Z,14.17
2019-04-20T10:47:23.081Z,15.13
2019-04-20T10:49:53.285Z,11.83
2019-04-20T10:52:23.768Z,12.83
2019-04-20T10:54:54.359Z,12.53
2019-04-20T10:57:24.122Z,16.37
2019-04-20T10:59:53.423Z,9.47
2019-04-20T11:02:23.619Z,12.57
2019-04-20T11:04:53.219Z,10.77
2019-04-20T11:07:22.863Z,14.27
2019-04-20T11:10:05.291Z,11.73
2019-04-20T11:12:26.262Z,7.70
2019-04-20T11:14:58.565Z,10.67
2019-04-20T11:17:29.956Z,8.50
2019-04-20T11:19:59.361Z,4.23
2019-04-20T11:22:28.871Z,8.10
2019-04-20T11:24:58.536Z,11.93
2019-04-20T11:27:28.276Z,11.67
2019-04-20T11:29:58.242Z,7.87
2019-04-20T11:32:28.355Z,10.37
2019-04-20T11:35:03.007Z,9.00
2019-04-20T11:37:31.010Z,8.77
2019-04-20T11:40:01.506Z,9.60
2019-04-20T11:42:37.419Z,9.43
2019-04-20T11:45:10.879Z,5.73
2019-04-20T11:47:40.618Z,7.00
2019-04-20T11:50:09.957Z,6.47
2019-04-20T11:52:44.170Z,8.73
2019-04-20T11:55:12.536Z,6.57
2019-04-20T11:57:43.124Z,6.17
2019-04-20T12:00:17.290Z,10.77
2019-04-20T12:03:16.089Z,7.73
2019-04-20T12:05:44.488Z,9.30
2019-04-20T12:08:11.191Z,8.47
2019-04-20T12:10:44.681Z,10.50
2019-04-20T12:13:14.579Z,7.97
2019-04-20T12:15:43.487Z,8.40
2019-04-20T12:18:13.794Z,10.73
2019-04-20T12:20:44.879Z,9.53
2019-04-20T12:23:15.993Z,6.63
2019-04-20T12:25:46.268Z,6.27
2019-04-20T12:28:15.827Z,8.23
2019-04-20T12:30:45.998Z,12.23
2019-04-20T12:33:15.715Z,13.53
2019-04-20T12:35:46.287Z,10.47
2019-04-20T12:38:17.068Z,11.77
2019-04-20T12:40:48.279Z,9.40
2019-04-20T12:43:19.127Z,9.57
2019-04-20T12:45:49.692Z,3.70
2019-04-20T12:48:19.770Z,7.60
2019-04-20T12:50:49.932Z,4.50
2019-04-20T12:53:20.422Z,7.63
2019-04-20T12:55:54.834Z,9.20
2019-04-20T12:58:24.780Z,9.87
2019-04-20T13:00:56.349Z,7.53
2019-04-20T13:03:27.668Z,6.17
2019-04-20T13:05:58.172Z,5.63
2019-04-20T13:08:33.976Z,13.07
2019-04-20T13:11:02.440Z,3.00
2019-04-20T13:13:41.537Z,7.77
2019-04-20T13:16:14.239Z,4.43
2019-04-20T13:18:48.358Z,2.73
2019-04-20T13:21:18.897Z,7.80
2019-04-20T13:23:49.502Z,5.40
2019-04-20T13:26:19.361Z,4.23
2019-04-20T13:28:48.937Z,6.73
2019-04-20T13:31:19.773Z,4.03
2019-04-20T13:33:49.584Z,11.13
2019-04-20T13:36:19.952Z,4.70
2019-04-20T13:38:50.042Z,9.63
2019-04-20T13:41:19.930Z,6.37
2019-04-20T13:43:50.282Z,5.73
2019-04-20T13:46:20.802Z,8.37
2019-04-20T13:48:51.278Z,4.23
2019-04-20T13:51:21.054Z,8.83
2019-04-20T13:53:51.047Z,5.20
2019-04-20T13:56:23.766Z,10.27
2019-04-20T13:58:56.173Z,4.77
2019-04-20T14:01:45.079Z,6.07
2019-04-20T14:04:20.587Z,4.47
2019-04-20T14:06:51.528Z,4.87
2019-04-20T14:09:21.383Z,2.57
2019-04-20T14:11:51.765Z,7.00
2019-04-20T14:14:21.495Z,4.93
2019-04-20T14:16:51.005Z,4.87
2019-04-20T14:19:21.057Z,6.13
2019-04-20T14:21:52.173Z,3.70
2019-04-20T14:24:22.115Z,8.23
2019-04-20T14:26:52.844Z,7.40
2019-04-20T14:29:23.105Z,6.07
2019-04-20T14:31:53.682Z,5.23
2019-04-20T14:34:24.499Z,7.23
2019-04-20T14:36:55.130Z,5.67
2019-04-20T14:39:30.229Z,5.47
2019-04-20T14:42:00.458Z,5.27
2019-04-20T14:44:29.939Z,5.17
2019-04-20T14:47:00.073Z,3.40
2019-04-20T14:49:30.512Z,5.63
2019-04-20T14:52:01.564Z,4.97
2019-04-20T14:54:31.829Z,6.70
2019-04-20T14:57:05.580Z,7.17
2019-04-20T14:59:39.582Z,4.70
2019-04-20T15:02:10.567Z,3.77
2019-04-20T15:04:41.222Z,4.30
2019-04-20T15:07:11.056Z,8.77
2019-04-20T15:09:40.785Z,7.33
2019-04-20T15:12:10.938Z,2.90
2019-04-20T15:14:44.784Z,3.97
2019-04-20T15:17:17.137Z,10.83
2019-04-20T15:19:51.879Z,4.57
2019-04-20T15:22:36.422Z,4.90
2019-04-20T15:25:07.644Z,3.43
2019-04-20T15:27:42.507Z,6.60
2019-04-20T15:30:10.471Z,7.13
2019-04-20T15:32:40.930Z,3.57
2019-04-20T15:35:11.153Z,9.50
2019-04-20T15:37:42.395Z,10.27
2019-04-20T15:40:13.229Z,10.53
2019-04-20T15:42:51.622Z,5.83
2019-04-20T15:45:15.569Z,8.73
2019-04-20T15:47:45.898Z,3.73
2019-04-20T15:50:16.081Z,5.37
2019-04-20T15:52:50.864Z,5.73
2019-04-20T15:55:21.670Z,3.10
2019-04-20T15:57:48.223Z,3.47
2019-04-20T16:00:20.296Z,4.23
2019-04-20T16:03:09.533Z,4.43
2019-04-20T16:05:47.173Z,4.20
2019-04-20T16:08:21.562Z,7.13
2019-04-20T16:10:52.973Z,7.10
2019-04-20T16:13:30.043Z,5.43
2019-04-20T16:15:53.985Z,3.80
2019-04-20T16:18:25.114Z,3.23
2019-04-20T16:21:05.230Z,5.97
2019-04-20T16:23:30.418Z,4.43
2019-04-20T16:26:07.874Z,8.27
2019-04-20T16:28:37.611Z,7.07
2019-04-20T16:31:10.028Z,6.30
2019-04-20T16:33:38.863Z,6.23
2019-04-20T16:36:10.246Z,5.40
2019-04-20T16:38:41.738Z,4.90
2019-04-20T16:41:12.332Z,3.77
2019-04-20T16:43:44.727Z,5.90
2019-04-20T16:46:16.846Z,6.03
2019-04-20T16:48:44.549Z,4.90
2019-04-20T16:51:13.844Z,12.17
2019-04-20T16:53:43.926Z,5.27
2019-04-20T16:56:15.672Z,5.93
2019-04-20T16:58:47.747Z,4.70
2019-04-20T17:01:15.463Z,4.63
2019-04-20T17:03:54.615Z,7.80
2019-04-20T17:06:15.963Z,7.67
2019-04-20T17:08:47.770Z,5.93
2019-04-20T17:11:18.303Z,9.50
2019-04-20T17:13:50.042Z,4.17
2019-04-20T17:16:19.701Z,8.60
2019-04-20T17:18:50.397Z,6.33
2019-04-20T17:21:23.512Z,7.33
2019-04-20T17:23:51.316Z,6.33
2019-04-20T17:26:27.156Z,4.80
2019-04-20T17:29:10.736Z,6.07
2019-04-20T17:31:43.204Z,8.13
2019-04-20T17:34:30.161Z,6.67
2019-04-20T17:36:44.474Z,6.17
2019-04-20T17:39:25.840Z,8.40
2019-04-20T17:42:03.457Z,6.23
2019-04-20T17:44:34.405Z,4.83
2019-04-20T17:47:00.631Z,9.03
2019-04-20T17:49:35.517Z,7.57
2019-04-20T17:52:21.517Z,5.83
2019-04-20T17:54:31.433Z,3.77
2019-04-20T17:57:02.338Z,8.20
2019-04-20T17:59:34.547Z,9.10
2019-04-20T18:02:17.522Z,10.73
2019-04-20T18:05:08.213Z,9.17
2019-04-20T18:07:37.928Z,8.50
2019-04-20T18:10:06.749Z,6.43
2019-04-20T18:12:27.034Z,10.53
2019-04-20T18:15:10.231Z,9.40
2019-04-20T18:17:56.499Z,10.03
2019-04-20T18:20:21.454Z,8.77
2019-04-20T18:22:56.551Z,10.20
2019-04-20T18:25:50.875Z,11.37
2019-04-20T18:28:11.097Z,6.53
2019-04-20T18:30:48.036Z,6.90
2019-04-20T18:33:11.527Z,8.03
2019-04-20T18:35:46.051Z,7.10
2019-04-20T18:38:15.242Z,6.33
2019-04-20T18:40:53.373Z,11.83
2019-04-20T18:43:21.496Z,7.97
2019-04-20T18:46:03.887Z,10.90
2019-04-20T18:48:40.043Z,12.97
2019-04-20T18:50:49.049Z,9.63
2019-04-20T18:53:28.686Z,10.60
2019-04-20T18:55:55.512Z,9.40
2019-04-20T18:58:22.834Z,12.10
2019-04-20T19:00:54.217Z,8.27
2019-04-20T19:03:32.293Z,13.47
2019-04-20T19:05:55.849Z,8.30
2019-04-20T19:08:35.004Z,11.37
2019-04-20T19:11:04.186Z,10.03
2019-04-20T19:13:47.768Z,10.33
2019-04-20T19:16:30.680Z,11.63
2019-04-20T19:19:06.677Z,12.03
2019-04-20T19:21:27.043Z,11.67
2019-04-20T19:24:05.592Z,18.30
2019-04-20T19:26:28.568Z,9.33
2019-04-20T19:29:12.207Z,10.80
2019-04-20T19:31:45.829Z,14.10
2019-04-20T19:34:18.851Z,12.10
2019-04-20T19:36:38.926Z,19.00
2019-04-20T19:39:23.740Z,13.70
2019-04-20T19:41:49.021Z,11.87
2019-04-20T19:44:18.681Z,9.03
2019-04-20T19:47:01.310Z,15.97
2019-04-20T19:49:23.017Z,8.63
2019-04-20T19:52:14.921Z,11.60
2019-04-20T19:54:34.507Z,18.53
2019-04-20T19:56:58.533Z,13.33
2019-04-20T19:59:23.600Z,12.43
2019-04-20T20:01:45.818Z,16.27
2019-04-20T20:04:15.643Z,13.83
2019-04-20T20:06:51.816Z,16.40
2019-04-20T20:09:18.201Z,16.97
2019-04-20T20:11:49.968Z,17.53
2019-04-20T20:14:31.950Z,13.67
2019-04-20T20:17:08.482Z,14.80
2019-04-20T20:19:39.661Z,16.80
2019-04-20T20:22:07.907Z,18.67
2019-04-20T20:24:25.141Z,16.13
2019-04-20T20:27:00.331Z,15.23
2019-04-20T20:29:34.167Z,17.03
2019-04-20T20:32:11.060Z,17.60
2019-04-20T20:34:36.394Z,19.60
2019-04-20T20:37:04.283Z,17.60
2019-04-20T20:39:34.282Z,18.77
2019-04-20T20:42:15.140Z,17.83
2019-04-20T20:44:41.118Z,18.63
2019-04-20T20:47:35.351Z,15.00
2019-04-20T20:50:03.247Z,25.73
2019-04-20T20:52:26.202Z,16.90
2019-04-20T20:54:49.553Z,17.70
2019-04-20T20:57:13.208Z,15.73
2019-04-20T20:59:49.416Z,18.10
2019-04-20T21:02:17.996Z,15.70
2019-04-20T21:04:41.844Z,18.37
2019-04-20T21:07:11.143Z,19.30
2019-04-20T21:09:41.676Z,16.50
2019-04-20T21:12:15.918Z,17.20
2019-04-20T21:14:44.254Z,14.57
2019-04-20T21:17:18.284Z,15.37
2019-04-20T21:19:59.432Z,16.37
2019-04-20T21:22:27.277Z,15.77
2019-04-20T21:24:51.108Z,13.63
2019-04-20T21:27:22.117Z,11.53
2019-04-20T21:29:54.706Z,17.67
2019-04-20T21:32:23.713Z,17.87
2019-04-20T21:34:58.501Z,14.93
2019-04-20T21:37:27.112Z,15.53
2019-04-20T21:39:59.723Z,16.13
2019-04-20T21:42:30.099Z,15.93
2019-04-20T21:45:08.118Z,16.73
2019-04-20T21:47:34.195Z,20.73
2019-04-20T21:50:17.066Z,19.97
2019-04-20T21:52:39.227Z,16.03
2019-04-20T21:55:05.887Z,17.33
2019-04-20T21:57:40.714Z,18.73
2019-04-20T22:00:21.682Z,17.73
2019-04-20T22:02:48.393Z,19.33
2019-04-20T22:05:13.586Z,19.60
2019-04-20T22:07:44.257Z,20.47
2019-04-20T22:10:20.196Z,15.53
2019-04-20T22:12:52.645Z,16.13
2019-04-20T22:15:24.731Z,15.40
2019-04-20T22:17:48.599Z,16.10
2019-04-20T22:20:28.346Z,21.07
2019-04-20T22:23:02.653Z,20.93
2019-04-20T22:25:40.802Z,16.53
2019-04-20T22:27:51.724Z,16.97
2019-04-20T22:30:22.082Z,14.23
2019-04-20T22:32:55.269Z,14.90
2019-04-20T22:35:26.144Z,13.50
2019-04-20T22:38:01.138Z,13.77
2019-04-20T22:40:32.149Z,17.67
2019-04-20T22:43:00.590Z,13.97
2019-04-20T22:45:33.965Z,14.47
2019-04-20T22:48:07.082Z,16.10
2019-04-20T22:50:45.996Z,14.90
2019-04-20T22:53:18.937Z,12.33
2019-04-20T22:56:01.482Z,19.23
2019-04-20T22:58:23.398Z,15.90
2019-04-20T23:00:48.699Z,21.50
2019-04-20T23:03:10.166Z,15.33
2019-04-20T23:05:40.598Z,20.13
2019-04-20T23:08:10.950Z,14.80
2019-04-20T23:10:44.799Z,14.80
2019-04-20T23:13:11.605Z,13.83
2019-04-20T23:15:43.291Z,17.80
2019-04-20T23:18:13.861Z,13.90
2019-04-20T23:20:44.108Z,17.57
2019-04-20T23:23:18.162Z,17.73
2019-04-20T23:25:45.151Z,15.77
2019-04-20T23:28:18.051Z,18.80
2019-04-20T23:30:47.346Z,17.40
2019-04-20T23:33:18.115Z,13.87
2019-04-20T23:35:54.163Z,14.07
2019-04-20T23:38:22.547Z,16.50
2019-04-20T23:40:50.067Z,13.87
2019-04-20T23:43:28.174Z,18.07
2019-04-20T23:46:17.029Z,13.53
2019-04-20T23:48:56.175Z,10.73
2019-04-20T23:51:49.956Z,13.53
2019-04-20T23:54:07.243Z,12.10
2019-04-20T23:56:28.367Z,10.97
2019-04-20T23:58:59.691Z,13.43
